• Join FlightAware (Why Join?)
  • Login
  • US Flag 
04:12AM EDT


 

Airport Tracker/Info


-or-


 

Live Flight TrackerFlight Track Log ✈ N1944E ✈ 25-Jun-2013 ✈ KGGW - 6S5

Flight Track Log - Related Links

Times and Time Zones

All times are in EDT time to prevent confusion due to time zone crossing. See the N1944E flight status page for this flight to view local times or setup timezone preferences in your user account.

Time Position Orientation Groundspeed Altitude Reporting Facility
EDT Latitude Longitude Course Direction KTS MPH feet Rate Location/Type
02:11PM 48.1261 -107.0043 252° West  Level Estimated
02:12PM 48.1116 -107.0691 251° West  Level Estimated
02:13PM 48.0970 -107.1339 251° West  Level Estimated
02:14PM 48.0824 -107.1986 251° West  Level Estimated
02:15PM 48.0678 -107.2633 251° West  Level Estimated
02:16PM 48.0531 -107.3279 251° West  Level Estimated
02:17PM 48.0384 -107.3926 251° West  Level Estimated
02:18PM 48.0237 -107.4571 251° West  Level Estimated
02:19PM 48.0089 -107.5217 251° West  Level Estimated
02:20PM 47.9941 -107.5862 251° West  Level Estimated
02:21PM 47.9792 -107.6506 251° West  Level Estimated
02:21PM 48.0019 -107.5364 251° West 178 205 16,000  Level Salt Lake Center
02:22PM 47.9644 -107.7151 251° West  Level Estimated
02:22PM 47.9903 -107.6233 259° West 180 207 16,000  Level Salt Lake Center
02:23PM 47.9494 -107.7795 251° West  Level Estimated
02:23PM 47.9764 -107.6956 254° West 180 207 16,000  Level Salt Lake Center
02:24PM 47.9345 -107.8438 251° West  Level Estimated
02:24PM 47.9622 -107.7656 253° West 179 206 16,000  Level Salt Lake Center
02:25PM 47.9195 -107.9081 251° West  Level Estimated
02:25PM 47.9478 -107.8344 253° West 176 203 16,000  Level Salt Lake Center
02:26PM 47.9044 -107.9724 251° West  Level Estimated
02:26PM 47.9331 -107.9025 252° West 174 200 16,000  Level Salt Lake Center
02:27PM 47.9144 -107.9689 247° West 174 200 16,000  Level Salt Lake Center
02:28PM 47.8956 -108.0486 251° West 172 198 16,000  Level Salt Lake Center
02:29PM 47.8778 -108.1156 248° West 173 199 16,000  Level Salt Lake Center
02:30PM 47.8608 -108.1811 249° West 172 198 16,000  Level Salt Lake Center
02:31PM 47.8450 -108.2492 251° West 173 199 16,000  Level Salt Lake Center
02:32PM 47.8281 -108.3153 249° West 172 198 16,000  Level Salt Lake Center
02:33PM 47.8131 -108.3797 251° West 170 196 16,000  Level Salt Lake Center
02:34PM 47.7967 -108.4475 250° West 171 197 16,000  Level Salt Lake Center
02:35PM 47.7769 -108.5319 251° West 176 203 16,000  Level Salt Lake Center
02:36PM 47.7611 -108.6008 251° West 177 204 16,000 -60 Level Salt Lake Center
02:37PM 47.7444 -108.6703 250° West 178 205 15,900  Descending Salt Lake Center
02:38PM 47.7286 -108.7400 251° West 179 206 16,000  Climbing Salt Lake Center
02:39PM 47.7106 -108.8100 249° West 180 207 16,000  Level Salt Lake Center
02:40PM 47.6919 -108.8811 249° West 181 208 16,000 -60 Level Salt Lake Center
02:41PM 47.6711 -108.9642 250° West 182 209 15,900  Descending Salt Lake Center
02:42PM 47.6536 -109.0325 249° West 180 207 16,100 60 Climbing Salt Lake Center
02:43PM 47.6356 -109.1006 249° West 179 206 16,100  Level Salt Lake Center
02:44PM 47.6194 -109.1700 251° West 178 205 16,100  Level Salt Lake Center
02:45PM 47.6075 -109.2419 256° West 179 206 16,100  Level Salt Lake Center
02:46PM 47.5978 -109.3122 258° West 178 205 16,100  Level Salt Lake Center
02:47PM 47.5808 -109.3947 253° West 176 203 16,100  Level Salt Lake Center
02:49PM 47.5631 -109.4614 248° West 174 200 16,100  Level Salt Lake Center
02:50PM 47.5450 -109.5278 248° West 174 200 16,100  Level Salt Lake Center
02:51PM 47.5272 -109.5931 248° West 173 199 16,100  Level Salt Lake Center
02:52PM 47.5064 -109.6608 246° West 175 201 16,100  Level Salt Lake Center
02:53PM 47.4847 -109.7258 244° Southwest 176 203 16,100  Level Salt Lake Center
02:54PM 47.4594 -109.8036 244° Southwest 176 203 16,100  Level Salt Lake Center
02:55PM 47.4381 -109.8692 244° Southwest 177 204 16,100  Level Salt Lake Center
02:56PM 47.4200 -109.9347 248° West 175 201 16,100  Level Salt Lake Center
02:57PM 47.4022 -109.9981 247° West 172 198 16,100  Level Salt Lake Center
02:58PM 47.3831 -110.0622 246° West 171 197 16,100  Level Salt Lake Center
02:59PM 47.3658 -110.1292 249° West 172 198 16,100  Level Salt Lake Center
03:00PM 47.3475 -110.1956 248° West 174 200 16,100  Level Salt Lake Center
03:01PM 47.3342 -110.2794 257° West 176 203 16,100  Level Salt Lake Center
03:02PM 47.3211 -110.3486 254° West 175 201 16,100  Level Salt Lake Center
03:03PM 47.3006 -110.4158 246° West 176 203 16,100  Level Salt Lake Center
03:04PM 47.2775 -110.4803 242° Southwest 177 204 16,100  Level Salt Lake Center
03:05PM 47.2536 -110.5453 242° Southwest 178 205 16,100  Level Salt Lake Center
03:06PM 47.2308 -110.6083 242° Southwest 177 204 16,100  Level Salt Lake Center
03:07PM 47.2125 -110.6753 248° West 177 204 16,100  Level Salt Lake Center
03:08PM 47.1947 -110.7572 252° West 176 203 16,100  Level Salt Lake Center
03:09PM 47.1789 -110.8247 251° West 175 201 16,100  Level Salt Lake Center
03:10PM 47.1606 -110.8925 248° West 176 203 16,100  Level Salt Lake Center
03:11PM 47.1428 -110.9625 250° West 179 206 16,100  Level Salt Lake Center
03:12PM 47.1264 -111.0297 250° West 178 205 16,100  Level Salt Lake Center
03:13PM 47.1172 -111.0978 259° West 172 198 16,100  Level Salt Lake Center
03:14PM 47.1078 -111.1619 258° West 165 190 16,100  Level Salt Lake Center
03:15PM 47.0931 -111.2250 251° West 164 189 16,100  Level Salt Lake Center
03:16PM 47.0719 -111.3000 248° West 165 190 16,100  Level Salt Lake Center
03:17PM 47.0558 -111.3669 251° West 171 197 16,100  Level Salt Lake Center
03:18PM 47.0389 -111.4339 250° West 172 198 16,100  Level Salt Lake Center
03:19PM 47.0217 -111.5008 249° West 175 201 16,100  Level Salt Lake Center
03:20PM 47.0022 -111.5686 247° West 177 204 16,100  Level Salt Lake Center
03:21PM 46.9828 -111.6297 245° Southwest 173 199 16,100  Level Salt Lake Center
03:23PM 46.9631 -111.6925 245° Southwest 170 196 16,100  Level Salt Lake Center
03:24PM 46.9383 -111.7644 243° Southwest 168 193 16,100  Level Salt Lake Center
03:25PM 46.9200 -111.8233 246° West 164 189 16,100  Level Salt Lake Center
03:26PM 46.9022 -111.8828 246° West 161 185 16,100  Level Salt Lake Center
03:27PM 46.8856 -111.9431 248° West 160 184 16,100  Level Salt Lake Center
03:28PM 46.8708 -112.0064 251° West 161 185 16,100  Level Salt Lake Center
03:29PM 46.8589 -112.0711 255° West 163 188 16,100 -60 Level Salt Lake Center
03:30PM 46.8456 -112.1364 253° West 166 191 16,000 -60 Descending Salt Lake Center
03:31PM 46.8256 -112.2114 249° West 167 192 16,000  Level Salt Lake Center
03:32PM 46.8081 -112.2703 247° West 161 185 16,000  Level Salt Lake Center
03:33PM 46.7867 -112.3281 242° Southwest 161 185 16,000  Level Salt Lake Center
03:34PM 46.7669 -112.3850 243° Southwest 160 184 16,000  Level Salt Lake Center
03:35PM 46.7478 -112.4431 244° Southwest 158 182 16,000  Level Salt Lake Center
03:36PM 46.7367 -112.5083 256° West 165 190 16,000  Level Salt Lake Center
03:37PM 46.7397 -112.5769 274° West 168 193 16,000  Level Salt Lake Center
03:38PM 46.7403 -112.6583 271° West 167 192 16,000  Level Salt Lake Center
03:39PM 46.7389 -112.7256 268° West 166 191 16,000  Level Salt Lake Center
03:40PM 46.7375 -112.7969 268° West 174 200 16,000  Level Salt Lake Center
03:41PM 46.7356 -112.8681 268° West 176 203 16,000  Level Salt Lake Center
03:42PM 46.7322 -112.9436 266° West 171 197 16,000  Level Salt Lake Center
03:43PM 46.7275 -113.0117 264° West 170 196 16,000  Level Salt Lake Center
03:44PM 46.7214 -113.0825 263° West 175 201 16,000 -300 Level Salt Lake Center
03:45PM 46.7158 -113.1539 264° West 179 206 15,400 -540 Descending Salt Lake Center
03:46PM 46.7114 -113.2331 265° West 194 223 15,000 -300 Descending Salt Lake Center
03:47PM 46.7108 -113.3197 269° West 179 206 14,900 -300 Descending Salt Lake Center
03:48PM 46.7108 -113.3936 270° West 183 211 14,500 -420 Descending Salt Lake Center
03:49PM 46.7089 -113.4689 268° West 186 214 14,100 -360 Descending Salt Lake Center
03:50PM 46.7036 -113.5492 265° West 185 213 13,800 -540 Descending Salt Lake Center
03:51PM 46.7000 -113.6247 266° West 186 214 13,000 -480 Descending Salt Lake Center
03:52PM 46.6961 -113.6986 266° West 185 213 12,900 -600 Descending Salt Lake Center
03:53PM 46.6931 -113.7792 267° West 186 214 11,800 -960 Descending Salt Lake Center
03:54PM 46.6878 -113.8589 265° West 196 226 11,000 -780 Descending Salt Lake Center